Time;durP1;ratioP1;P1;durP2;ratioP2;P2;SDS_P1;SDS_P2;PMS_P1;PMS_P2;Temp;Humidity;BMP_temperature;BMP_pressure;BME280_temperature;BME280_humidity;BME280_pressure;Samples;Min_cycle;Max_cycle;Signal;HPM_P1;HPM_P2
2022/01/11 00:00:30;;;;;;;337.67;72.80;;;0.30;99.90;;;;;;5029559;28;20053;-83
2022/01/11 00:02:56;;;;;;;249.43;66.65;;;0.30;99.90;;;;;;5013229;28;20057;-83
2022/01/11 00:05:26;;;;;;;314.92;69.30;;;0.20;99.90;;;;;;4996071;28;20054;-83
2022/01/11 00:07:52;;;;;;;271.60;63.13;;;0.90;99.90;;;;;;5013715;28;20482;-82
2022/01/11 00:10:30;;;;;;;345.27;69.57;;;0.90;99.90;;;;;;5028765;28;20107;-82
2022/01/11 00:12:57;;;;;;;353.33;74.40;;;0.20;99.90;;;;;;5029525;28;20049;-83
2022/01/11 00:15:23;;;;;;;245.55;64.13;;;0.10;99.90;;;;;;4996219;28;20058;-81
2022/01/11 00:17:48;;;;;;;224.00;61.45;;;1.30;99.90;;;;;;5030488;28;20555;-83
2022/01/11 00:20:16;;;;;;;275.92;66.40;;;0.80;99.90;;;;;;5029958;28;20050;-83
2022/01/11 00:24:27;;;;;;;253.35;66.65;;;1.10;99.90;;;;;;5029511;28;20098;-83
2022/01/11 00:25:30;;;;;;;197.38;60.15;;;0.10;99.90;;;;;;5018657;28;20058;-82
2022/01/11 00:27:56;;;;;;;190.00;57.92;;;0.10;99.90;;;;;;5034467;28;20057;-82
2022/01/11 00:30:22;;;;;;;183.63;59.15;;;0.10;99.90;;;;;;5016036;28;20052;-83
2022/01/11 00:32:52;;;;;;;165.45;57.22;;;1.10;99.90;;;;;;5032807;28;20065;-83
2022/01/11 00:35:22;;;;;;;155.05;54.95;;;0.10;99.90;;;;;;5016450;28;20100;-83
2022/01/11 00:37:48;;;;;;;150.05;54.67;;;1.60;99.90;;;;;;5034139;28;20042;-82
2022/01/11 00:40:14;;;;;;;144.65;53.17;;;0.10;99.90;;;;;;5032226;28;20052;-82
2022/01/11 00:42:40;;;;;;;191.27;59.72;;;0.10;99.90;;;;;;5032899;28;20049;-82
2022/01/11 00:45:07;;;;;;;194.40;60.22;;;0.10;99.90;;;;;;5016295;28;20056;-85
2022/01/11 00:47:33;;;;;;;147.85;54.17;;;0.10;99.90;;;;;;5016924;28;20103;-82
2022/01/11 00:49:59;;;;;;;169.98;59.30;;;0.70;99.90;;;;;;5016692;28;20508;-82
2022/01/11 00:52:25;;;;;;;154.77;56.70;;;0.00;99.90;;;;;;5015931;28;20045;-83
2022/01/11 00:54:50;;;;;;;186.50;58.85;;;0.30;99.90;;;;;;5033786;28;20057;-83
2022/01/11 00:57:16;;;;;;;164.40;58.50;;;0.00;99.90;;;;;;5031965;28;20076;-83
2022/01/11 00:59:41;;;;;;;174.18;57.88;;;0.30;99.90;;;;;;5015874;28;20049;-82
2022/01/11 01:02:07;;;;;;;163.55;57.75;;;0.00;99.90;;;;;;5016035;28;20053;-84
2022/01/11 01:04:33;;;;;;;203.93;60.95;;;0.00;99.90;;;;;;5033282;28;20053;-82
2022/01/11 01:06:58;;;;;;;222.75;63.33;;;1.50;99.90;;;;;;5032255;28;20042;-82
2022/01/11 01:09:29;;;;;;;226.95;62.92;;;0.70;99.90;;;;;;5015245;28;20152;-83
2022/01/11 01:11:54;;;;;;;280.38;70.10;;;0.10;99.90;;;;;;5032384;28;20111;-82
2022/01/11 01:14:21;;;;;;;288.52;67.93;;;1.10;99.90;;;;;;5031750;28;20049;-82
2022/01/11 01:16:47;;;;;;;258.73;66.75;;;0.10;99.90;;;;;;5033200;28;20565;-83
2022/01/11 01:19:12;;;;;;;254.43;65.38;;;0.20;99.90;;;;;;5031544;28;20045;-85
2022/01/11 01:21:39;;;;;;;265.20;66.57;;;0.10;99.90;;;;;;5031898;28;20050;-83
2022/01/11 01:24:06;;;;;;;273.30;65.65;;;1.00;99.90;;;;;;5015714;28;20048;-83
2022/01/11 01:26:32;;;;;;;277.02;65.45;;;0.10;99.90;;;;;;5031318;28;20221;-82
2022/01/11 01:28:59;;;;;;;261.73;65.32;;;0.60;99.90;;;;;;5031950;28;20502;-83
2022/01/11 01:31:26;;;;;;;265.33;64.82;;;0.30;99.90;;;;;;5032507;28;20061;-83
2022/01/11 01:33:51;;;;;;;284.20;69.72;;;0.40;99.90;;;;;;5031103;28;20053;-83
2022/01/11 01:36:17;;;;;;;244.15;62.20;;;1.20;99.90;;;;;;5014052;28;20138;-83
2022/01/11 01:38:43;;;;;;;274.08;67.05;;;0.60;99.90;;;;;;4999318;28;20053;-83
2022/01/11 01:41:17;;;;;;;318.45;65.05;;;0.00;99.90;;;;;;5014961;28;20049;-83
2022/01/11 01:43:44;;;;;;;352.75;69.22;;;0.00;99.90;;;;;;5016514;28;20071;-83
2022/01/11 01:46:10;;;;;;;263.30;66.32;;;0.10;99.90;;;;;;5015116;28;20171;-82
2022/01/11 01:48:36;;;;;;;292.10;66.78;;;0.00;99.90;;;;;;5014719;28;20128;-83
2022/01/11 01:51:09;;;;;;;348.08;69.80;;;0.70;99.90;;;;;;5031742;28;20072;-83
2022/01/11 01:53:40;;;;;;;303.65;67.40;;;1.40;99.90;;;;;;5014576;28;20491;-84
2022/01/11 01:56:06;;;;;;;367.80;71.03;;;0.60;99.90;;;;;;5031558;28;20049;-83
2022/01/11 01:58:32;;;;;;;431.15;74.63;;;0.00;99.90;;;;;;5030819;28;20054;-83
2022/01/11 02:01:03;;;;;;;285.38;64.95;;;0.00;99.90;;;;;;5031372;28;20850;-82
2022/01/11 02:03:30;;;;;;;312.67;65.05;;;0.00;99.90;;;;;;5030881;28;20187;-83
2022/01/11 02:05:56;;;;;;;293.40;65.35;;;0.00;99.90;;;;;;5031100;28;20041;-83
2022/01/11 02:08:22;;;;;;;260.35;63.00;;;0.50;99.90;;;;;;5014460;28;20060;-83
2022/01/11 02:10:48;;;;;;;331.38;66.82;;;-0.10;99.90;;;;;;5031245;28;20085;-83
2022/01/11 02:13:13;;;;;;;506.90;88.25;;;-0.10;99.90;;;;;;5031098;28;20134;-83
2022/01/11 02:15:39;;;;;;;311.63;67.97;;;0.30;99.90;;;;;;5031804;28;20052;-83
2022/01/11 02:18:13;;;;;;;376.02;74.75;;;-0.10;99.90;;;;;;5014951;28;20057;-83
2022/01/11 02:20:40;;;;;;;380.38;70.20;;;-0.10;99.90;;;;;;5031672;28;20057;-83
2022/01/11 02:23:06;;;;;;;447.45;79.53;;;0.10;99.90;;;;;;5031048;28;20097;-83
2022/01/11 02:25:32;;;;;;;285.55;65.38;;;0.20;99.90;;;;;;5013875;28;20099;-84
2022/01/11 02:27:57;;;;;;;573.50;93.68;;;0.00;99.90;;;;;;5031033;28;20136;-84
2022/01/11 02:30:23;;;;;;;373.17;73.85;;;0.00;99.90;;;;;;5030159;28;20136;-86
2022/01/11 02:32:52;;;;;;;524.55;79.53;;;0.00;99.90;;;;;;5031781;28;20084;-83
2022/01/11 02:35:18;;;;;;;319.15;68.65;;;1.30;99.90;;;;;;5032019;28;20493;-83
2022/01/11 02:37:44;;;;;;;425.10;73.25;;;0.10;99.90;;;;;;5030130;28;20041;-83
2022/01/11 02:40:10;;;;;;;489.20;74.97;;;0.30;99.90;;;;;;5014061;28;20053;-84
2022/01/11 02:42:36;;;;;;;438.58;73.43;;;0.00;99.90;;;;;;5013666;28;20041;-83
2022/01/11 02:45:01;;;;;;;401.35;70.85;;;0.00;99.90;;;;;;5031996;28;20038;-83
2022/01/11 02:47:27;;;;;;;446.27;71.22;;;0.00;99.90;;;;;;5030001;28;20107;-84
2022/01/11 02:49:53;;;;;;;475.42;75.53;;;0.10;99.90;;;;;;5030779;28;20049;-84
2022/01/11 02:52:18;;;;;;;513.17;86.13;;;0.10;99.90;;;;;;5031534;28;20049;-84
2022/01/11 02:54:44;;;;;;;697.70;98.85;;;0.80;99.90;;;;;;5030026;28;20087;-83
2022/01/11 02:57:09;;;;;;;428.92;74.07;;;0.10;99.90;;;;;;5031755;28;20041;-83
2022/01/11 02:59:35;;;;;;;461.83;75.20;;;0.10;99.90;;;;;;5030765;28;20080;-84
2022/01/11 03:02:01;;;;;;;399.02;74.43;;;0.70;99.90;;;;;;5031669;28;20120;-84
2022/01/11 03:04:31;;;;;;;542.63;86.80;;;1.00;99.90;;;;;;5031099;28;20485;-86
2022/01/11 03:06:57;;;;;;;437.92;76.60;;;0.10;99.90;;;;;;5031265;28;20492;-84
2022/01/11 03:09:24;;;;;;;399.92;73.70;;;0.30;99.90;;;;;;5031038;28;20049;-84
2022/01/11 03:11:50;;;;;;;402.13;73.88;;;0.10;99.90;;;;;;5029679;28;20075;-83
2022/01/11 03:14:15;;;;;;;467.70;75.18;;;0.10;99.90;;;;;;5030171;28;20490;-84
2022/01/11 03:16:41;;;;;;;388.77;73.97;;;1.30;99.90;;;;;;5029425;28;20474;-83
2022/01/11 03:19:06;;;;;;;456.83;73.25;;;0.80;99.90;;;;;;5031273;28;20049;-83
2022/01/11 03:21:32;;;;;;;473.38;81.97;;;1.50;99.90;;;;;;5029482;28;20049;-83
2022/01/11 03:23:59;;;;;;;471.30;77.18;;;0.10;99.90;;;;;;5029942;28;20045;-82
2022/01/11 03:26:24;;;;;;;492.33;79.65;;;0.20;99.90;;;;;;5029768;28;20439;-83
2022/01/11 03:28:50;;;;;;;378.48;72.93;;;0.20;99.90;;;;;;5029188;28;20121;-83
2022/01/11 03:31:19;;;;;;;386.83;74.00;;;0.10;99.90;;;;;;5031030;28;20080;-83
2022/01/11 03:33:44;;;;;;;404.67;72.57;;;0.20;99.90;;;;;;5030091;28;20061;-84
2022/01/11 03:36:10;;;;;;;406.88;74.13;;;0.20;99.90;;;;;;5031024;28;20093;-83
2022/01/11 03:38:36;;;;;;;405.88;73.32;;;0.10;99.90;;;;;;5030417;28;20419;-84
2022/01/11 03:41:02;;;;;;;472.85;78.13;;;0.10;99.90;;;;;;4997070;28;20057;-84
2022/01/11 03:43:28;;;;;;;367.02;71.10;;;0.10;99.90;;;;;;5030843;28;20042;-84
2022/01/11 03:45:53;;;;;;;283.00;66.50;;;1.40;99.90;;;;;;4995876;28;20049;-83
2022/01/11 03:48:19;;;;;;;292.73;65.80;;;0.10;99.90;;;;;;5029606;28;20049;-84
2022/01/11 03:50:51;;;;;;;327.58;67.45;;;0.80;99.90;;;;;;5029263;28;20060;-83
2022/01/11 03:53:18;;;;;;;343.63;68.10;;;0.10;99.90;;;;;;4997781;28;20135;-84
2022/01/11 03:55:46;;;;;;;341.45;67.00;;;0.10;99.90;;;;;;5030132;28;20089;-84
2022/01/11 03:58:13;;;;;;;280.83;59.60;;;0.60;99.90;;;;;;5013659;28;20569;-84
2022/01/11 04:00:40;;;;;;;322.90;65.72;;;0.80;99.90;;;;;;5016668;28;20081;-84
2022/01/11 04:03:06;;;;;;;312.90;66.65;;;0.10;99.90;;;;;;5001027;28;20080;-84
2022/01/11 04:05:32;;;;;;;306.40;63.33;;;0.10;99.90;;;;;;5034763;28;20053;-84
2022/01/11 04:07:58;;;;;;;282.20;61.88;;;0.90;99.90;;;;;;5000390;28;20397;-85
2022/01/11 04:10:23;;;;;;;349.95;66.00;;;0.10;99.90;;;;;;5034808;28;20129;-84
2022/01/11 04:12:50;;;;;;;332.60;68.95;;;0.10;99.90;;;;;;5034178;28;20100;-84
2022/01/11 04:15:16;;;;;;;229.30;57.95;;;0.10;99.90;;;;;;5017273;28;20072;-83
2022/01/11 04:17:42;;;;;;;269.10;62.35;;;0.10;99.90;;;;;;5016311;28;20053;-84
2022/01/11 04:20:08;;;;;;;263.15;62.08;;;0.10;99.90;;;;;;5033522;28;20054;-85
2022/01/11 04:22:34;;;;;;;313.60;65.35;;;0.10;99.90;;;;;;5000853;28;20375;-84
2022/01/11 04:24:59;;;;;;;229.63;59.42;;;0.10;99.90;;;;;;5032703;28;20056;-83
2022/01/11 04:27:25;;;;;;;241.30;58.70;;;0.90;99.90;;;;;;5034259;28;20049;-83
2022/01/11 04:29:51;;;;;;;244.10;62.92;;;0.40;99.90;;;;;;5015866;28;20128;-84
2022/01/11 04:32:16;;;;;;;266.95;62.03;;;1.20;99.90;;;;;;5032961;28;20045;-83
2022/01/11 04:34:42;;;;;;;246.40;61.03;;;0.20;99.90;;;;;;5032214;28;20132;-84
2022/01/11 04:37:07;;;;;;;218.70;60.45;;;0.20;99.90;;;;;;5032852;28;20135;-84
2022/01/11 04:39:33;;;;;;;265.05;63.78;;;0.20;99.90;;;;;;5032719;28;20053;-84
2022/01/11 04:41:59;;;;;;;224.02;60.58;;;1.10;99.90;;;;;;5033494;28;20294;-83
2022/01/11 04:44:25;;;;;;;239.02;63.22;;;1.50;99.90;;;;;;5033167;28;20132;-83
2022/01/11 04:46:50;;;;;;;227.35;59.72;;;0.80;99.90;;;;;;5032114;28;20048;-84
2022/01/11 04:49:16;;;;;;;231.80;60.38;;;0.30;99.90;;;;;;5034178;28;20044;-83
2022/01/11 04:51:42;;;;;;;208.15;57.35;;;1.50;99.90;;;;;;5016516;28;20092;-86
2022/01/11 04:54:07;;;;;;;212.88;58.85;;;0.90;99.90;;;;;;5032582;28;20042;-83
2022/01/11 04:56:33;;;;;;;218.98;59.65;;;0.20;99.90;;;;;;5033193;28;20049;-84
2022/01/11 04:58:59;;;;;;;237.45;60.38;;;0.20;99.90;;;;;;5033725;28;20108;-84
2022/01/11 05:01:24;;;;;;;213.63;59.30;;;1.50;99.90;;;;;;5000110;28;20119;-83
2022/01/11 05:03:50;;;;;;;228.50;61.75;;;0.20;99.90;;;;;;5032004;28;20068;-83
2022/01/11 05:06:16;;;;;;;204.02;60.13;;;0.70;99.90;;;;;;5016182;28;20106;-84
2022/01/11 05:08:44;;;;;;;204.77;56.33;;;0.20;99.90;;;;;;5033732;28;20053;-84
2022/01/11 05:11:09;;;;;;;241.30;63.22;;;0.20;99.90;;;;;;5030902;28;20111;-85
2022/01/11 05:13:35;;;;;;;213.13;61.67;;;0.20;99.90;;;;;;5033675;28;20049;-85
2022/01/11 05:16:02;;;;;;;236.80;64.55;;;0.20;99.90;;;;;;5032853;28;20073;-84
2022/01/11 05:18:29;;;;;;;243.40;64.15;;;1.70;99.90;;;;;;5032380;28;20060;-84
2022/01/11 05:20:55;;;;;;;231.10;61.13;;;0.20;99.90;;;;;;5031541;28;20524;-85
2022/01/11 05:23:20;;;;;;;222.65;61.55;;;0.30;99.90;;;;;;5031939;28;20081;-84
2022/01/11 05:25:46;;;;;;;241.80;62.60;;;0.20;99.90;;;;;;5033121;28;20049;-86
2022/01/11 05:28:12;;;;;;;255.02;65.00;;;0.30;99.90;;;;;;5031622;28;20509;-84
2022/01/11 05:30:37;;;;;;;230.25;60.70;;;0.30;99.90;;;;;;5033311;28;20049;-84
2022/01/11 05:33:03;;;;;;;239.10;62.88;;;1.80;99.90;;;;;;5032445;28;20154;-84
2022/01/11 05:35:29;;;;;;;247.45;63.60;;;1.50;99.90;;;;;;4999385;28;20049;-84
2022/01/11 05:37:54;;;;;;;254.75;66.28;;;0.40;99.90;;;;;;5031258;28;20053;-85
2022/01/11 05:40:20;;;;;;;251.75;65.78;;;0.70;99.90;;;;;;5032926;28;20056;-85
2022/01/11 05:42:46;;;;;;;226.98;63.90;;;0.80;99.90;;;;;;5015385;28;20056;-84
2022/01/11 05:45:12;;;;;;;234.80;66.75;;;0.30;99.90;;;;;;5015023;28;20049;-84
2022/01/11 05:47:38;;;;;;;251.65;67.25;;;0.30;99.90;;;;;;5032662;28;20393;-83
2022/01/11 05:50:08;;;;;;;217.75;63.95;;;0.90;99.90;;;;;;5032123;28;20042;-84
2022/01/11 05:52:34;;;;;;;251.57;69.45;;;0.30;99.90;;;;;;5031533;28;20050;-84
2022/01/11 05:55:00;;;;;;;234.73;64.07;;;0.40;99.90;;;;;;5014263;28;20049;-84
2022/01/11 05:57:26;;;;;;;223.18;65.93;;;0.40;99.90;;;;;;5015072;28;20076;-84
2022/01/11 05:59:52;;;;;;;207.23;63.60;;;0.60;99.90;;;;;;5032387;28;20473;-88
2022/01/11 06:02:17;;;;;;;221.82;65.68;;;0.40;99.90;;;;;;5032378;28;20049;-85
2022/01/11 06:04:43;;;;;;;218.68;64.20;;;0.40;99.90;;;;;;5032605;28;20099;-83
2022/01/11 06:07:09;;;;;;;216.20;63.22;;;1.40;99.90;;;;;;5030568;28;20045;-84
2022/01/11 06:09:34;;;;;;;197.13;60.38;;;0.30;99.90;;;;;;5031273;28;20049;-83
2022/01/11 06:12:00;;;;;;;199.63;62.38;;;0.40;99.90;;;;;;5014635;28;20065;-83
2022/01/11 06:14:35;;;;;;;208.57;65.55;;;0.40;99.90;;;;;;5015496;28;20053;-84
2022/01/11 06:17:01;;;;;;;197.13;64.63;;;0.40;99.90;;;;;;5031889;28;20053;-82
2022/01/11 06:19:27;;;;;;;207.18;61.60;;;0.40;99.90;;;;;;5031142;28;20056;-83
2022/01/11 06:21:52;;;;;;;222.05;64.95;;;0.70;99.90;;;;;;5031880;28;20046;-83
2022/01/11 06:24:18;;;;;;;202.82;63.30;;;0.50;99.90;;;;;;5031621;28;20049;-83
2022/01/11 06:26:44;;;;;;;204.32;62.70;;;0.40;99.90;;;;;;5032099;28;20135;-83
2022/01/11 06:29:09;;;;;;;234.85;66.38;;;0.30;99.90;;;;;;5030386;28;20490;-82
2022/01/11 06:31:35;;;;;;;229.93;64.15;;;0.30;99.90;;;;;;5030790;28;20049;-82
2022/01/11 06:34:01;;;;;;;229.75;65.07;;;1.80;99.90;;;;;;5029975;28;20053;-84
2022/01/11 06:36:27;;;;;;;219.18;66.30;;;0.30;99.90;;;;;;5014389;28;20037;-83
2022/01/11 06:38:53;;;;;;;231.00;67.32;;;0.80;99.90;;;;;;5030824;28;20099;-84
2022/01/11 06:41:19;;;;;;;244.25;62.53;;;0.20;99.90;;;;;;5031347;28;20170;-84
2022/01/11 06:43:44;;;;;;;229.52;66.50;;;0.30;99.90;;;;;;5031637;28;20053;-84
2022/01/11 06:46:10;;;;;;;227.65;66.88;;;0.30;99.90;;;;;;5014210;28;20045;-84
2022/01/11 06:48:36;;;;;;;239.48;64.90;;;0.30;99.90;;;;;;5032054;28;20132;-84
2022/01/11 06:51:01;;;;;;;243.52;65.82;;;1.20;99.90;;;;;;5030765;28;20053;-86
2022/01/11 06:53:28;;;;;;;216.00;64.82;;;0.90;99.90;;;;;;5014715;28;20135;-85
2022/01/11 06:55:54;;;;;;;213.73;62.10;;;0.20;99.90;;;;;;5031988;28;20045;-84
2022/01/11 06:58:21;;;;;;;224.93;61.95;;;1.20;99.90;;;;;;5014091;28;20712;-84
2022/01/11 07:00:46;;;;;;;235.80;66.35;;;0.20;99.90;;;;;;5015329;28;20104;-84
2022/01/11 07:03:12;;;;;;;225.23;66.30;;;0.30;99.90;;;;;;5032324;28;20402;-85
2022/01/11 07:05:38;;;;;;;227.07;66.20;;;0.80;99.90;;;;;;5033980;28;20076;-84
2022/01/11 07:08:04;;;;;;;213.68;64.43;;;1.20;99.90;;;;;;5030073;28;20057;-88
2022/01/11 07:10:30;;;;;;;224.07;65.25;;;0.20;99.90;;;;;;5014084;28;20502;-84
2022/01/11 07:12:57;;;;;;;197.27;62.53;;;0.20;99.90;;;;;;5031391;28;20096;-84
2022/01/11 07:15:23;;;;;;;202.75;62.28;;;0.30;99.90;;;;;;5013678;28;20744;-84
2022/01/11 07:17:49;;;;;;;210.43;59.60;;;0.20;99.90;;;;;;5031341;28;20053;-83
2022/01/11 07:20:14;;;;;;;219.48;63.88;;;0.50;99.90;;;;;;5031044;28;20504;-84
2022/01/11 07:22:40;;;;;;;210.00;61.83;;;0.20;99.90;;;;;;5031405;28;20054;-84
2022/01/11 07:25:06;;;;;;;200.57;62.42;;;0.60;99.90;;;;;;5029856;28;20539;-87
2022/01/11 07:27:33;;;;;;;208.85;61.60;;;0.10;99.90;;;;;;5014025;28;20054;-83
2022/01/11 07:30:05;;;;;;;197.30;61.53;;;1.20;99.90;;;;;;5030391;28;20045;-84
2022/01/11 07:32:33;;;;;;;212.68;61.92;;;0.20;99.90;;;;;;5014694;28;20046;-84
2022/01/11 07:34:59;;;;;;;207.27;60.88;;;0.20;99.90;;;;;;5013424;28;20099;-85
2022/01/11 07:37:25;;;;;;;191.00;60.50;;;0.20;99.90;;;;;;5031286;28;20041;-85
2022/01/11 07:39:50;;;;;;;186.30;58.35;;;0.20;99.90;;;;;;5013661;28;20045;-83
2022/01/11 07:42:16;;;;;;;197.80;59.25;;;0.20;99.90;;;;;;5030788;28;20053;-84
2022/01/11 07:44:43;;;;;;;191.73;59.70;;;0.20;99.90;;;;;;5013544;28;20533;-84
2022/01/11 07:47:09;;;;;;;202.52;62.42;;;0.30;99.90;;;;;;5030935;28;20128;-87
2022/01/11 07:49:34;;;;;;;197.00;59.45;;;0.20;99.90;;;;;;5029822;28;20141;-83
2022/01/11 07:52:01;;;;;;;180.63;54.88;;;0.80;99.90;;;;;;5013389;28;20506;-84
2022/01/11 07:54:26;;;;;;;169.43;51.22;;;0.30;99.90;;;;;;5013218;28;20057;-84
2022/01/11 07:56:52;;;;;;;166.20;55.55;;;0.30;99.90;;;;;;5013321;28;20391;-84
2022/01/11 07:59:18;;;;;;;168.90;56.20;;;0.30;99.90;;;;;;5030361;28;20041;-84
2022/01/11 08:01:43;;;;;;;168.90;55.05;;;1.30;99.90;;;;;;5030479;28;20506;-84
2022/01/11 08:04:09;;;;;;;170.30;55.65;;;0.40;99.90;;;;;;5030955;28;20057;-85
2022/01/11 08:06:35;;;;;;;153.50;54.35;;;0.40;99.90;;;;;;5028904;28;20061;-86
2022/01/11 08:09:00;;;;;;;145.30;47.65;;;0.40;99.90;;;;;;5029541;28;20124;-85
2022/01/11 08:11:27;;;;;;;139.65;49.40;;;0.50;99.90;;;;;;5029957;28;20042;-86
2022/01/11 08:13:52;;;;;;;143.55;50.88;;;0.50;99.90;;;;;;5029188;28;20052;-84
2022/01/11 08:16:18;;;;;;;126.97;47.22;;;0.50;99.90;;;;;;5029961;28;20045;-85
2022/01/11 08:18:44;;;;;;;132.15;47.92;;;0.60;99.90;;;;;;5029138;28;20470;-84
2022/01/11 08:21:09;;;;;;;121.28;40.40;;;0.70;99.90;;;;;;5013176;28;20075;-84
2022/01/11 08:23:35;;;;;;;110.93;45.35;;;1.00;99.90;;;;;;5029942;28;20506;-85
2022/01/11 08:26:01;;;;;;;114.72;46.53;;;0.70;99.90;;;;;;5030333;28;20397;-85
2022/01/11 08:28:26;;;;;;;110.70;43.78;;;1.10;99.90;;;;;;5027881;28;20057;-82
2022/01/11 08:30:52;;;;;;;99.65;42.38;;;0.80;99.90;;;;;;5030370;28;20045;-85
2022/01/11 08:33:18;;;;;;;103.85;42.92;;;0.80;99.90;;;;;;5028244;28;20050;-85
2022/01/11 08:35:44;;;;;;;89.70;39.17;;;0.90;99.90;;;;;;5029141;28;20053;-84
2022/01/11 08:38:10;;;;;;;105.72;40.67;;;0.90;99.90;;;;;;5030371;28;20046;-84
2022/01/11 08:40:36;;;;;;;98.05;39.63;;;2.00;99.90;;;;;;5012459;28;20632;-85
2022/01/11 08:43:03;;;;;;;81.13;35.88;;;1.30;99.90;;;;;;5030290;28;20052;-85
2022/01/11 08:45:30;;;;;;;81.45;35.75;;;1.10;99.90;;;;;;5030506;28;20056;-85
2022/01/11 08:47:56;;;;;;;80.95;36.50;;;1.20;99.90;;;;;;5017367;28;20057;-84
2022/01/11 08:50:21;;;;;;;72.00;34.03;;;1.30;99.90;;;;;;5015464;28;20049;-85
2022/01/11 08:52:47;;;;;;;71.07;33.20;;;1.30;99.90;;;;;;5033405;28;20063;-83
2022/01/11 08:55:13;;;;;;;63.97;31.63;;;2.00;99.90;;;;;;5033710;28;20076;-84
2022/01/11 08:57:39;;;;;;;64.13;29.65;;;1.60;99.90;;;;;;5015554;28;20041;-84
2022/01/11 09:00:09;;;;;;;65.57;29.77;;;2.00;99.90;;;;;;5032248;28;20053;-83
2022/01/11 09:02:37;;;;;;;64.80;29.67;;;1.70;99.90;;;;;;5031974;28;20147;-83
2022/01/11 09:05:03;;;;;;;50.80;27.42;;;1.70;99.90;;;;;;5016083;28;20057;-84
2022/01/11 09:07:29;;;;;;;60.35;29.10;;;1.70;99.90;;;;;;5034684;28;20091;-84
2022/01/11 09:09:55;;;;;;;53.28;26.23;;;1.60;99.90;;;;;;5033140;28;20429;-84
2022/01/11 09:12:21;;;;;;;51.72;25.80;;;2.70;99.90;;;;;;5031849;28;20132;-85
2022/01/11 09:14:46;;;;;;;53.50;26.38;;;2.10;99.90;;;;;;5032066;28;20578;-84
2022/01/11 09:17:12;;;;;;;52.15;25.98;;;2.20;99.90;;;;;;5032329;28;20200;-84
2022/01/11 09:19:38;;;;;;;49.40;24.50;;;2.60;99.90;;;;;;5033124;28;20041;-84
2022/01/11 09:22:04;;;;;;;45.72;23.05;;;2.40;99.90;;;;;;5032518;28;20416;-84
2022/01/11 09:24:30;;;;;;;43.67;23.38;;;2.20;99.90;;;;;;5015219;28;20052;-82
2022/01/11 09:26:58;;;;;;;48.03;23.83;;;2.00;99.90;;;;;;5033361;28;20119;-84
2022/01/11 09:29:24;;;;;;;44.40;23.08;;;1.90;99.90;;;;;;5031637;28;20056;-84
2022/01/11 09:31:50;;;;;;;43.03;23.25;;;2.10;99.90;;;;;;5032075;28;20049;-84
2022/01/11 09:34:15;;;;;;;45.42;23.77;;;2.60;99.90;;;;;;5033372;28;20103;-84
2022/01/11 09:36:41;;;;;;;48.45;25.35;;;1.50;99.90;;;;;;5032732;28;20044;-84
2022/01/11 09:39:07;;;;;;;43.55;22.73;;;1.50;99.90;;;;;;5015414;28;20050;-84
2022/01/11 09:41:34;;;;;;;50.25;24.00;;;1.50;99.90;;;;;;5031529;28;20049;-84
2022/01/11 09:44:00;;;;;;;48.70;24.58;;;1.60;99.90;;;;;;5031736;28;20049;-83
2022/01/11 09:46:25;;;;;;;45.80;23.35;;;1.50;99.90;;;;;;5015068;28;20061;-88
2022/01/11 09:48:51;;;;;;;45.42;23.33;;;1.60;99.90;;;;;;5031876;28;20054;-82
2022/01/11 09:51:16;;;;;;;43.30;24.00;;;1.40;99.90;;;;;;5031671;28;20053;-82
2022/01/11 09:53:42;;;;;;;46.63;24.88;;;1.50;99.90;;;;;;4998764;28;20045;-83
2022/01/11 09:56:08;;;;;;;43.20;23.80;;;1.50;99.90;;;;;;5015051;28;20119;-86
2022/01/11 09:58:35;;;;;;;37.08;21.60;;;1.60;99.90;;;;;;5014922;28;20053;-86
2022/01/11 10:01:01;;;;;;;45.15;23.52;;;1.90;99.90;;;;;;5031690;28;20045;-86
2022/01/11 10:03:27;;;;;;;42.92;22.75;;;2.00;99.90;;;;;;5015277;28;20108;-86
2022/01/11 10:05:53;;;;;;;37.00;20.17;;;1.60;99.90;;;;;;5032952;28;20589;-87
2022/01/11 10:08:27;;;;;;;43.40;24.02;;;2.50;99.90;;;;;;5031800;28;20089;-86
2022/01/11 10:10:54;;;;;;;38.72;22.23;;;1.60;99.90;;;;;;5031308;28;20041;-87
2022/01/11 10:13:35;;;;;;;42.72;22.98;;;1.70;99.90;;;;;;5032959;28;20172;-86
2022/01/11 10:16:21;;;;;;;37.15;21.50;;;1.70;99.90;;;;;;5031558;28;20045;-86
2022/01/11 10:18:47;;;;;;;41.15;21.27;;;1.90;99.90;;;;;;5030799;28;20139;-85
2022/01/11 10:21:36;;;;;;;40.33;23.30;;;2.00;99.90;;;;;;5031513;28;20080;-86
2022/01/11 10:24:33;;;;;;;33.78;19.70;;;1.90;99.90;;;;;;5015162;28;20057;-87
2022/01/11 10:27:17;;;;;;;36.03;21.25;;;1.90;99.90;;;;;;5031280;28;20092;-87
2022/01/11 10:29:54;;;;;;;35.00;20.80;;;3.00;99.90;;;;;;5030763;28;20097;-88
2022/01/11 10:32:27;;;;;;;35.83;20.63;;;2.00;99.90;;;;;;5015989;28;20440;-87
2022/01/11 10:34:58;;;;;;;35.83;20.73;;;2.10;99.90;;;;;;5029828;28;20089;-86
2022/01/11 10:37:42;;;;;;;33.53;19.20;;;2.30;99.90;;;;;;5030943;28;20049;-86
2022/01/11 10:40:13;;;;;;;33.00;19.25;;;2.30;99.90;;;;;;5031163;28;20125;-86
2022/01/11 10:42:48;;;;;;;36.22;19.60;;;2.40;99.90;;;;;;5031676;28;20053;-87
2022/01/11 10:45:44;;;;;;;33.58;20.23;;;2.40;99.90;;;;;;4999493;28;20057;-88
2022/01/11 10:48:23;;;;;;;33.60;18.20;;;2.40;99.90;;;;;;5015330;28;20057;-88
2022/01/11 10:50:59;;;;;;;33.85;19.30;;;2.30;99.90;;;;;;4998070;28;20053;-86
2022/01/11 10:53:33;;;;;;;34.85;19.00;;;2.10;99.90;;;;;;5031075;28;20123;-87
2022/01/11 10:56:00;;;;;;;34.22;19.95;;;2.10;99.90;;;;;;5029759;28;20076;-85
2022/01/11 10:58:28;;;;;;;31.48;19.92;;;2.20;99.90;;;;;;5015299;28;20452;-86
2022/01/11 11:00:54;;;;;;;34.17;19.05;;;2.30;99.90;;;;;;5029804;28;20056;-87
2022/01/11 11:03:27;;;;;;;27.77;16.15;;;2.70;99.90;;;;;;4997567;28;20061;-87
2022/01/11 11:06:00;;;;;;;35.85;19.83;;;3.60;99.90;;;;;;5031455;28;20048;-87
2022/01/11 11:08:31;;;;;;;33.75;20.45;;;2.80;99.90;;;;;;5012996;28;20136;-87
2022/01/11 11:10:56;;;;;;;31.73;18.70;;;2.70;99.90;;;;;;5029888;28;20060;-86
2022/01/11 11:13:26;;;;;;;31.23;19.45;;;2.70;99.90;;;;;;5030480;28;20402;-86
2022/01/11 11:15:56;;;;;;;34.28;20.05;;;2.70;99.90;;;;;;5030992;28;20050;-84
2022/01/11 11:18:27;;;;;;;35.67;20.42;;;2.70;99.90;;;;;;4997726;28;20053;-84
2022/01/11 11:20:52;;;;;;;29.02;18.50;;;2.60;99.90;;;;;;5029782;28;20049;-84
2022/01/11 11:23:19;;;;;;;33.95;19.15;;;2.70;99.90;;;;;;5031348;28;20064;-84
2022/01/11 11:25:45;;;;;;;30.83;17.83;;;3.40;99.90;;;;;;5030636;28;20497;-84
2022/01/11 11:28:10;;;;;;;30.10;18.13;;;2.70;99.90;;;;;;5013471;28;20044;-84
2022/01/11 11:30:36;;;;;;;29.50;17.85;;;2.70;99.90;;;;;;5029752;28;20460;-86
2022/01/11 11:33:02;;;;;;;30.70;18.35;;;2.70;99.90;;;;;;5030641;28;20053;-85
2022/01/11 11:35:28;;;;;;;28.55;17.50;;;2.60;99.90;;;;;;5029543;28;20094;-85
2022/01/11 11:37:59;;;;;;;30.08;17.58;;;2.60;99.90;;;;;;5029509;28;20049;-84
2022/01/11 11:40:27;;;;;;;34.40;18.40;;;4.00;99.90;;;;;;5029609;28;20096;-84
2022/01/11 11:42:55;;;;;;;34.40;19.00;;;2.80;99.90;;;;;;5029415;28;20115;-87
2022/01/11 11:45:27;;;;;;;29.33;16.83;;;3.00;99.90;;;;;;5013753;28;20053;-86
2022/01/11 11:48:04;;;;;;;30.35;16.65;;;3.20;99.90;;;;;;5029389;28;20052;-86
2022/01/11 11:50:30;;;;;;;28.20;16.55;;;2.90;99.90;;;;;;5030096;28;20041;-86
2022/01/11 11:52:56;;;;;;;29.23;15.43;;;3.50;99.90;;;;;;5030759;28;20140;-86
2022/01/11 11:55:27;;;;;;;29.73;16.50;;;3.00;99.90;;;;;;5013709;28;20086;-85
2022/01/11 11:57:57;;;;;;;23.52;14.52;;;3.10;99.90;;;;;;5013402;28;20053;-86
2022/01/11 12:00:25;;;;;;;29.92;17.80;;;3.30;99.90;;;;;;5029845;28;20513;-93
2022/01/11 12:02:55;;;;;;;25.13;14.80;;;3.30;99.90;;;;;;4996818;28;20440;-84
2022/01/11 12:05:36;;;;;;;27.17;16.15;;;3.10;99.90;;;;;;5029178;28;20056;-84
2022/01/11 12:08:42;;;;;;;23.40;14.95;;;3.70;99.90;;;;;;5029340;28;20056;-84
2022/01/11 12:11:10;;;;;;;23.42;12.57;;;4.30;99.90;;;;;;5008090;28;20077;-85
2022/01/11 12:13:54;;;;;;;24.35;14.50;;;4.10;99.90;;;;;;5007188;28;20409;-85
2022/01/11 12:16:26;;;;;;;25.52;14.82;;;4.20;99.90;;;;;;5031157;28;20045;-85
2022/01/11 12:18:52;;;;;;;23.02;14.40;;;4.30;99.90;;;;;;5030533;28;20397;-86
2022/01/11 12:21:18;;;;;;;22.15;13.48;;;4.30;99.90;;;;;;5000867;28;20057;-85
2022/01/11 12:23:44;;;;;;;23.08;15.25;;;4.60;99.90;;;;;;5033480;28;20041;-85
2022/01/11 12:26:16;;;;;;;24.35;13.93;;;4.50;99.90;;;;;;5033234;28;20049;-85
2022/01/11 12:29:09;;;;;;;23.08;13.70;;;4.60;99.90;;;;;;5033861;28;20498;-86
2022/01/11 12:31:54;;;;;;;24.45;13.93;;;4.50;99.90;;;;;;5021584;28;20061;-86